Time;durP1;ratioP1;P1;durP2;ratioP2;P2;SDS_P1;SDS_P2;PMS_P1;PMS_P2;Temp;Humidity;BMP_temperature;BMP_pressure;BME280_temperature;BME280_humidity;BME280_pressure;Samples;Min_cycle;Max_cycle;Signal;HPM_P1;HPM_P2
2021/08/05 00:02:25;;;;;;;;;;;;;;;24.40;58.46;100986.06;4952379;28;1233;-68
2021/08/05 00:04:52;;;;;;;;;;;;;;;24.40;58.33;100981.59;4968768;28;1230;-68
2021/08/05 00:07:18;;;;;;;;;;;;;;;24.42;58.22;100984.13;4970317;28;990;-67
2021/08/05 00:09:45;;;;;;;;;;;;;;;24.38;58.25;100986.16;4971237;28;1360;-68
2021/08/05 00:12:12;;;;;;;;;;;;;;;24.42;58.14;100979.66;4946600;28;1108;-68
2021/08/05 00:14:40;;;;;;;;;;;;;;;24.38;58.12;100972.84;4951816;28;1285;-67
2021/08/05 00:17:06;;;;;;;;;;;;;;;24.39;57.91;100973.72;4951614;29;990;-69
2021/08/05 00:19:33;;;;;;;;;;;;;;;24.43;57.92;100965.38;4951977;28;1285;-65
2021/08/05 00:22:00;;;;;;;;;;;;;;;24.42;57.82;100969.00;4951888;29;1981;-67
2021/08/05 00:24:26;;;;;;;;;;;;;;;24.41;57.82;100961.97;4951243;29;1339;-67
2021/08/05 00:26:53;;;;;;;;;;;;;;;24.37;57.74;100963.19;4951411;29;1097;-67
2021/08/05 00:29:20;;;;;;;;;;;;;;;24.36;57.43;100960.63;4951621;28;1047;-67
2021/08/05 00:31:46;;;;;;;;;;;;;;;24.39;57.37;100958.59;4951448;28;1308;-67
2021/08/05 00:34:13;;;;;;;;;;;;;;;24.31;57.30;100952.16;4951332;28;1186;-67
2021/08/05 00:36:40;;;;;;;;;;;;;;;24.33;57.50;100953.75;4951475;29;1226;-67
2021/08/05 00:39:06;;;;;;;;;;;;;;;24.34;57.37;100950.13;4950950;29;1144;-68
2021/08/05 00:41:33;;;;;;;;;;;;;;;24.31;57.53;100942.38;4951030;29;1911;-68
2021/08/05 00:44:01;;;;;;;;;;;;;;;24.35;57.48;100951.78;4951494;29;1096;-68
2021/08/05 00:46:28;;;;;;;;;;;;;;;24.36;57.32;100952.66;4950439;28;1167;-68
2021/08/05 00:48:55;;;;;;;;;;;;;;;24.33;57.37;100945.75;4951183;29;1005;-68
2021/08/05 00:51:22;;;;;;;;;;;;;;;24.22;57.35;100940.41;4951665;28;1304;-67
2021/08/05 00:53:49;;;;;;;;;;;;;;;24.31;57.29;100938.84;4951043;28;831;-67
2021/08/05 00:56:15;;;;;;;;;;;;;;;24.33;57.10;100937.75;4933825;29;1393;-67
2021/08/05 00:58:42;;;;;;;;;;;;;;;24.29;57.06;100933.63;4951088;28;764;-67
2021/08/05 01:01:16;;;;;;;;;;;;;;;24.25;57.22;100934.84;4951075;28;1919;-67
2021/08/05 01:03:45;;;;;;;;;;;;;;;24.32;57.25;100927.22;4951013;29;1100;-68
2021/08/05 01:06:17;;;;;;;;;;;;;;;24.30;57.11;100922.03;4933791;29;1273;-67
2021/08/05 01:08:49;;;;;;;;;;;;;;;24.40;56.63;100932.81;4933746;29;871;-68
2021/08/05 01:11:24;;;;;;;;;;;;;;;24.34;56.76;100934.16;4917194;29;1515;-68
2021/08/05 01:14:00;;;;;;;;;;;;;;;24.25;57.08;100939.31;4956970;28;1594;-67
2021/08/05 01:16:28;;;;;;;;;;;;;;;24.18;57.01;100936.28;4961951;28;1241;-68
2021/08/05 01:19:08;;;;;;;;;;;;;;;24.25;56.58;100944.66;4966216;28;886;-68
2021/08/05 01:21:47;;;;;;;;;;;;;;;24.29;56.73;100952.25;4970033;28;1915;-68
2021/08/05 01:24:17;;;;;;;;;;;;;;;24.23;56.44;100950.06;4970079;28;1173;-68
2021/08/05 01:26:47;;;;;;;;;;;;;;;24.21;56.85;100938.72;4949834;28;1293;-66
2021/08/05 01:29:23;;;;;;;;;;;;;;;24.24;56.88;100933.16;4950594;29;1176;-68
2021/08/05 01:31:50;;;;;;;;;;;;;;;24.25;56.55;100934.00;4950762;29;1323;-67
2021/08/05 01:34:18;;;;;;;;;;;;;;;24.16;57.01;100934.72;4950975;28;939;-68
2021/08/05 01:36:46;;;;;;;;;;;;;;;24.14;56.96;100933.97;4950712;29;1194;-68
2021/08/05 01:39:13;;;;;;;;;;;;;;;24.25;56.76;100926.88;4950591;28;1021;-67
2021/08/05 01:41:41;;;;;;;;;;;;;;;24.19;56.71;100927.34;4950200;29;1989;-67
2021/08/05 01:44:10;;;;;;;;;;;;;;;24.17;56.86;100928.41;4959562;28;1100;-67
2021/08/05 01:46:37;;;;;;;;;;;;;;;24.25;56.87;100926.88;4952512;28;1385;-66
2021/08/05 01:49:05;;;;;;;;;;;;;;;24.25;56.90;100928.69;4969902;28;1127;-69
2021/08/05 01:51:32;;;;;;;;;;;;;;;24.23;56.64;100934.09;4969356;28;1230;-68
2021/08/05 01:54:00;;;;;;;;;;;;;;;24.21;56.65;100938.72;4969752;28;886;-68
2021/08/05 01:56:27;;;;;;;;;;;;;;;24.20;56.93;100926.34;4969528;28;1226;-66
2021/08/05 01:58:57;;;;;;;;;;;;;;;24.18;56.71;100922.13;4975160;28;1273;-67
2021/08/05 02:01:24;;;;;;;;;;;;;;;24.20;56.99;100920.19;4976200;28;1975;-67
2021/08/05 02:04:03;;;;;;;;;;;;;;;24.12;57.01;100915.47;4958012;28;3001;-66
2021/08/05 02:06:31;;;;;;;;;;;;;;;24.18;56.76;100912.31;4975728;28;1251;-66
2021/08/05 02:09:00;;;;;;;;;;;;;;;24.26;56.60;100909.91;4975937;28;1028;-66
2021/08/05 02:11:28;;;;;;;;;;;;;;;24.25;56.81;100902.06;4974576;28;1661;-67
2021/08/05 02:13:56;;;;;;;;;;;;;;;24.26;56.85;100901.94;4975692;28;1064;-67
2021/08/05 02:16:24;;;;;;;;;;;;;;;24.19;57.07;100898.06;4976230;28;1257;-66
2021/08/05 02:18:51;;;;;;;;;;;;;;;24.16;57.16;100900.97;4975974;28;831;-66
2021/08/05 02:21:22;;;;;;;;;;;;;;;24.16;57.28;100892.97;4975725;28;1891;-67
2021/08/05 02:23:51;;;;;;;;;;;;;;;24.25;57.06;100892.28;4975598;28;1014;-66
2021/08/05 02:26:19;;;;;;;;;;;;;;;24.16;57.19;100882.34;4976272;28;1281;-66
2021/08/05 02:28:46;;;;;;;;;;;;;;;24.16;57.49;100882.34;4958309;28;1178;-68
2021/08/05 02:31:13;;;;;;;;;;;;;;;24.14;57.50;100878.06;4975704;28;1312;-67
2021/08/05 02:33:42;;;;;;;;;;;;;;;24.14;57.46;100876.25;4975788;28;1136;-67
2021/08/05 02:36:08;;;;;;;;;;;;;;;24.13;57.64;100879.06;4975883;28;1366;-67
2021/08/05 02:38:35;;;;;;;;;;;;;;;24.16;57.53;100873.50;4975578;28;837;-67
2021/08/05 02:41:03;;;;;;;;;;;;;;;24.21;57.50;100871.31;4975906;28;1968;-67
2021/08/05 02:43:31;;;;;;;;;;;;;;;24.18;57.54;100869.75;4975498;28;1099;-67
2021/08/05 02:45:59;;;;;;;;;;;;;;;24.17;57.73;100865.38;4976040;28;1638;-66
2021/08/05 02:48:26;;;;;;;;;;;;;;;24.18;57.80;100869.75;4975416;28;780;-66
2021/08/05 02:50:53;;;;;;;;;;;;;;;24.20;57.74;100865.13;4975643;28;1387;-67
2021/08/05 02:53:21;;;;;;;;;;;;;;;24.19;58.19;100855.47;4975777;28;1009;-66
2021/08/05 02:55:48;;;;;;;;;;;;;;;24.24;57.73;100852.44;4975644;28;1363;-67
2021/08/05 02:58:15;;;;;;;;;;;;;;;24.27;57.84;100850.41;4958025;28;776;-67
2021/08/05 03:00:43;;;;;;;;;;;;;;;24.22;57.99;100855.25;4975707;28;1907;-67
2021/08/05 03:03:10;;;;;;;;;;;;;;;24.18;58.02;100853.78;4975648;28;827;-67
2021/08/05 03:05:38;;;;;;;;;;;;;;;24.16;58.11;100858.38;4975303;28;1402;-67
2021/08/05 03:08:05;;;;;;;;;;;;;;;24.18;58.14;100858.25;4975071;28;1073;-67
2021/08/05 03:10:31;;;;;;;;;;;;;;;24.20;58.18;100853.63;4971294;28;1615;-65
2021/08/05 03:12:58;;;;;;;;;;;;;;;24.17;58.32;100852.06;4972084;28;834;-67
2021/08/05 03:15:25;;;;;;;;;;;;;;;24.17;58.25;100852.06;4971413;28;1327;-67
2021/08/05 03:17:51;;;;;;;;;;;;;;;24.15;58.14;100856.69;4954430;28;1799;-66
2021/08/05 03:20:18;;;;;;;;;;;;;;;24.19;58.55;100851.97;4954745;28;1277;-67
2021/08/05 03:22:45;;;;;;;;;;;;;;;24.18;58.28;100853.78;4972040;28;1906;-67
2021/08/05 03:25:12;;;;;;;;;;;;;;;24.20;58.33;100850.97;4971722;28;1269;-67
2021/08/05 03:27:39;;;;;;;;;;;;;;;24.19;58.50;100849.31;4972210;28;874;-65
2021/08/05 03:30:07;;;;;;;;;;;;;;;24.20;58.34;100841.19;4972229;28;1359;-67
2021/08/05 03:32:33;;;;;;;;;;;;;;;24.24;58.12;100837.31;4972010;28;1064;-67
2021/08/05 03:35:00;;;;;;;;;;;;;;;24.23;58.13;100835.63;4972217;28;1289;-68
2021/08/05 03:37:27;;;;;;;;;;;;;;;24.24;58.32;100826.69;4971524;28;859;-67
2021/08/05 03:39:54;;;;;;;;;;;;;;;24.23;58.21;100829.44;4971615;28;1375;-66
2021/08/05 03:42:20;;;;;;;;;;;;;;;24.22;58.30;100828.63;4971587;28;1906;-67
2021/08/05 03:44:47;;;;;;;;;;;;;;;24.25;58.02;100828.38;4971755;28;1280;-67
2021/08/05 03:47:14;;;;;;;;;;;;;;;24.18;58.44;100824.50;4971546;28;1108;-67
2021/08/05 03:49:40;;;;;;;;;;;;;;;24.22;58.24;100825.97;4971527;28;1352;-67
2021/08/05 03:52:10;;;;;;;;;;;;;;;24.20;58.44;100825.22;4971623;28;1115;-67
2021/08/05 03:54:47;;;;;;;;;;;;;;;24.16;58.55;100823.78;4971840;28;1261;-67
2021/08/05 03:57:14;;;;;;;;;;;;;;;24.13;58.27;100820.50;4971968;28;1081;-67
2021/08/05 03:59:40;;;;;;;;;;;;;;;24.13;58.41;100825.84;4971922;28;1350;-67
2021/08/05 04:02:07;;;;;;;;;;;;;;;24.10;58.44;100834.03;4971531;28;1906;-67
2021/08/05 04:04:34;;;;;;;;;;;;;;;24.09;58.38;100827.00;4971478;28;1222;-66
2021/08/05 04:07:00;;;;;;;;;;;;;;;24.08;58.44;100823.47;4971042;28;1136;-67
2021/08/05 04:09:27;;;;;;;;;;;;;;;24.14;58.15;100828.34;4970803;28;1233;-67
2021/08/05 04:11:54;;;;;;;;;;;;;;;24.09;58.21;100822.53;4971182;28;1232;-66
2021/08/05 04:14:20;;;;;;;;;;;;;;;24.05;58.45;100826.38;4971107;28;1048;-66
2021/08/05 04:16:47;;;;;;;;;;;;;;;24.01;58.56;100827.59;4970883;28;1453;-67
2021/08/05 04:19:14;;;;;;;;;;;;;;;24.05;58.48;100826.38;4970756;28;1052;-67
2021/08/05 04:21:40;;;;;;;;;;;;;;;23.98;58.63;100827.00;4970377;28;1989;-66
2021/08/05 04:24:08;;;;;;;;;;;;;;;23.99;58.65;100821.53;4970749;28;1156;-67
2021/08/05 04:26:35;;;;;;;;;;;;;;;24.07;58.50;100815.63;4971161;28;1309;-68
2021/08/05 04:29:02;;;;;;;;;;;;;;;24.09;58.35;100811.03;4953060;28;1701;-68
2021/08/05 04:31:28;;;;;;;;;;;;;;;24.07;58.25;100805.84;4969516;28;1237;-67
2021/08/05 04:33:55;;;;;;;;;;;;;;;24.11;58.29;100809.97;4970972;28;1208;-67
2021/08/05 04:36:29;;;;;;;;;;;;;;;24.09;58.22;100806.56;4938235;28;1722;-65
2021/08/05 04:38:55;;;;;;;;;;;;;;;24.06;58.16;100804.13;4970961;28;804;-67
2021/08/05 04:41:22;;;;;;;;;;;;;;;24.12;57.89;100798.38;4970883;28;1911;-67
2021/08/05 04:43:51;;;;;;;;;;;;;;;24.07;58.14;100805.00;4971050;28;933;-67
2021/08/05 04:46:18;;;;;;;;;;;;;;;24.07;58.14;100797.88;4970857;28;1334;-65
2021/08/05 04:48:44;;;;;;;;;;;;;;;24.09;58.11;100795.06;4970579;28;1105;-67
2021/08/05 04:51:11;;;;;;;;;;;;;;;24.11;57.95;100788.69;4970675;28;1272;-67
2021/08/05 04:53:38;;;;;;;;;;;;;;;24.15;57.91;100800.78;4970075;28;775;-67
2021/08/05 04:56:04;;;;;;;;;;;;;;;24.07;58.02;100803.19;4970378;28;1300;-67
2021/08/05 04:58:31;;;;;;;;;;;;;;;24.10;57.87;100796.78;4970477;28;875;-67
2021/08/05 05:00:58;;;;;;;;;;;;;;;24.09;57.91;100803.91;4970541;28;1914;-67
2021/08/05 05:03:25;;;;;;;;;;;;;;;24.09;58.12;100808.38;4970516;28;1072;-67
2021/08/05 05:05:52;;;;;;;;;;;;;;;24.15;57.75;100794.63;4970261;28;1269;-67
2021/08/05 05:08:20;;;;;;;;;;;;;;;24.10;57.97;100797.63;4969968;28;772;-68
2021/08/05 05:10:48;;;;;;;;;;;;;;;24.09;58.14;100801.22;4952672;28;1352;-67
2021/08/05 05:13:14;;;;;;;;;;;;;;;24.11;58.00;100799.31;4950962;28;1476;-66
2021/08/05 05:15:42;;;;;;;;;;;;;;;24.12;58.05;100803.69;4953788;28;1546;-67
2021/08/05 05:18:09;;;;;;;;;;;;;;;24.11;58.06;100804.66;4953912;28;772;-66
2021/08/05 05:20:36;;;;;;;;;;;;;;;24.12;58.00;100801.03;4933170;29;1269;-67
2021/08/05 05:23:03;;;;;;;;;;;;;;;24.11;57.93;100804.66;4949945;29;1963;-67
2021/08/05 05:25:30;;;;;;;;;;;;;;;24.08;58.09;100806.66;4964042;28;1269;-67
2021/08/05 05:27:57;;;;;;;;;;;;;;;24.14;57.87;100795.56;4969523;28;775;-67
2021/08/05 05:30:24;;;;;;;;;;;;;;;24.17;58.03;100790.84;4969659;28;1380;-66
2021/08/05 05:32:51;;;;;;;;;;;;;;;24.16;57.91;100796.31;4969444;28;775;-67
2021/08/05 05:35:18;;;;;;;;;;;;;;;24.12;58.03;100806.34;4951791;28;1313;-65
2021/08/05 05:37:46;;;;;;;;;;;;;;;24.11;58.42;100823.28;4969335;28;940;-67
2021/08/05 05:40:14;;;;;;;;;;;;;;;24.11;58.27;100823.28;4957529;28;1218;-67
2021/08/05 05:42:41;;;;;;;;;;;;;;;24.15;58.29;100829.22;4950027;29;1981;-66
2021/08/05 05:45:09;;;;;;;;;;;;;;;24.15;58.01;100829.22;4950553;28;1359;-66
2021/08/05 05:47:36;;;;;;;;;;;;;;;24.18;58.06;100827.16;4950793;28;733;-68
2021/08/05 05:50:06;;;;;;;;;;;;;;;24.14;58.23;100819.53;4950282;29;1269;-66
2021/08/05 05:52:33;;;;;;;;;;;;;;;24.14;58.30;100824.84;4950155;29;1060;-67
2021/08/05 05:54:59;;;;;;;;;;;;;;;24.19;58.15;100830.69;4950369;29;1273;-68
2021/08/05 05:57:26;;;;;;;;;;;;;;;24.21;57.78;100834.91;4949992;28;768;-69
2021/08/05 05:59:53;;;;;;;;;;;;;;;24.24;57.85;100829.34;4950488;28;1363;-71
2021/08/05 06:02:19;;;;;;;;;;;;;;;24.21;57.76;100834.91;4950360;28;1903;-73
2021/08/05 06:04:46;;;;;;;;;;;;;;;24.25;57.40;100838.19;4950346;28;1269;-72
2021/08/05 06:07:13;;;;;;;;;;;;;;;24.22;57.31;100841.06;4950635;29;1218;-69
2021/08/05 06:09:40;;;;;;;;;;;;;;;24.21;57.40;100839.38;4932792;29;1435;-70
2021/08/05 06:12:08;;;;;;;;;;;;;;;24.26;57.09;100840.69;4950005;28;1523;-70
2021/08/05 06:14:34;;;;;;;;;;;;;;;24.27;56.77;100838.91;4950050;29;1363;-72
2021/08/05 06:17:01;;;;;;;;;;;;;;;24.19;56.94;100838.66;4950316;29;768;-70
2021/08/05 06:19:28;;;;;;;;;;;;;;;24.23;56.87;100837.44;4950025;28;1360;-69
2021/08/05 06:21:55;;;;;;;;;;;;;;;24.25;56.74;100839.03;4950217;28;1906;-74
2021/08/05 06:24:21;;;;;;;;;;;;;;;24.24;56.83;100832.00;4932581;29;947;-72
2021/08/05 06:26:51;;;;;;;;;;;;;;;24.21;56.99;100837.56;4932664;29;1269;-71
2021/08/05 06:29:18;;;;;;;;;;;;;;;24.21;56.84;100834.91;4932311;29;1167;-72
2021/08/05 06:31:45;;;;;;;;;;;;;;;24.22;56.91;100833.94;4932137;29;1336;-72
2021/08/05 06:34:12;;;;;;;;;;;;;;;24.30;56.65;100828.00;4951817;28;1424;-74
2021/08/05 06:36:39;;;;;;;;;;;;;;;24.31;56.44;100827.91;4957233;28;1320;-73
2021/08/05 06:39:05;;;;;;;;;;;;;;;24.31;56.55;100833.22;4948909;29;1134;-76
2021/08/05 06:41:33;;;;;;;;;;;;;;;24.36;56.50;100824.84;4949157;29;1977;-74
2021/08/05 06:43:59;;;;;;;;;;;;;;;24.39;56.38;100825.47;4949065;28;901;-72
2021/08/05 06:46:26;;;;;;;;;;;;;;;24.33;56.63;100825.94;4952399;28;1221;-74
2021/08/05 06:48:53;;;;;;;;;;;;;;;24.30;56.84;100834.19;4935406;29;744;-72
2021/08/05 06:51:20;;;;;;;;;;;;;;;24.31;57.36;100833.22;4935144;29;1304;-72
2021/08/05 06:53:47;;;;;;;;;;;;;;;24.34;57.37;100837.44;4952062;28;1073;-73
2021/08/05 06:56:13;;;;;;;;;;;;;;;24.33;57.30;100836.59;4952056;29;1273;-71
2021/08/05 06:58:40;;;;;;;;;;;;;;;24.34;57.36;100830.31;4952601;28;815;-72
2021/08/05 07:01:07;;;;;;;;;;;;;;;24.42;57.57;100833.22;4952608;28;1277;-74
2021/08/05 07:03:34;;;;;;;;;;;;;;;24.42;57.33;100832.34;4918913;29;1907;-71
2021/08/05 07:06:01;;;;;;;;;;;;;;;24.43;57.58;100829.59;4952709;28;1411;-73
2021/08/05 07:08:28;;;;;;;;;;;;;;;24.48;57.48;100830.06;4955395;28;1412;-74
2021/08/05 07:10:54;;;;;;;;;;;;;;;24.47;57.53;100825.69;4961372;28;1369;-74
2021/08/05 07:13:21;;;;;;;;;;;;;;;24.46;57.67;100821.34;4952606;29;1198;-76
2021/08/05 07:15:48;;;;;;;;;;;;;;;24.43;57.82;100821.59;4952866;28;1230;-72
2021/08/05 07:18:14;;;;;;;;;;;;;;;24.45;58.12;100819.66;4952976;29;1068;-75
2021/08/05 07:20:41;;;;;;;;;;;;;;;24.54;57.97;100831.38;4951629;29;1209;-73
2021/08/05 07:23:08;;;;;;;;;;;;;;;24.52;58.27;100832.47;4952829;29;1907;-71
2021/08/05 07:25:34;;;;;;;;;;;;;;;24.48;58.49;100830.06;4935592;29;1363;-75
2021/08/05 07:28:03;;;;;;;;;;;;;;;24.52;58.41;100827.16;4952661;29;838;-73
2021/08/05 07:30:30;;;;;;;;;;;;;;;24.52;58.21;100835.13;4952723;28;1289;-73
2021/08/05 07:32:57;;;;;;;;;;;;;;;24.53;58.61;100828.84;4952835;29;1127;-72
2021/08/05 07:35:24;;;;;;;;;;;;;;;24.55;58.43;100829.56;4952845;29;1263;-72
2021/08/05 07:37:51;;;;;;;;;;;;;;;24.54;58.65;100828.72;4952552;28;973;-74
2021/08/05 07:40:18;;;;;;;;;;;;;;;24.56;59.05;100840.13;4952232;29;1346;-70
2021/08/05 07:42:45;;;;;;;;;;;;;;;24.56;58.89;100833.94;4934661;29;1977;-71
2021/08/05 07:45:11;;;;;;;;;;;;;;;24.56;58.73;100834.78;4952511;28;1274;-70
2021/08/05 07:47:38;;;;;;;;;;;;;;;24.57;58.95;100844.44;4952486;28;938;-71
2021/08/05 07:50:06;;;;;;;;;;;;;;;24.58;58.78;100835.50;4952377;28;1288;-71
2021/08/05 07:52:33;;;;;;;;;;;;;;;24.59;58.65;100834.53;4951634;29;776;-71
2021/08/05 07:55:03;;;;;;;;;;;;;;;24.60;58.86;100828.22;4934622;28;1305;-71
2021/08/05 07:57:31;;;;;;;;;;;;;;;24.62;58.71;100825.47;4952082;29;793;-70
2021/08/05 07:59:59;;;;;;;;;;;;;;;24.72;58.69;100824.56;4936517;28;1551;-69
2021/08/05 08:02:27;;;;;;;;;;;;;;;24.80;58.54;100826.63;4944833;29;1971;-69
2021/08/05 08:04:54;;;;;;;;;;;;;;;24.77;58.50;100818.91;4964948;28;1640;-69
2021/08/05 08:07:21;;;;;;;;;;;;;;;24.69;58.78;100810.66;4936517;28;1448;-68
2021/08/05 08:09:48;;;;;;;;;;;;;;;24.72;58.41;100807.75;4963902;28;1629;-66
2021/08/05 08:12:14;;;;;;;;;;;;;;;24.74;58.80;100804.00;4969080;28;1529;-62
2021/08/05 08:14:41;;;;;;;;;;;;;;;24.75;58.66;100810.16;4960615;28;1510;-67
2021/08/05 08:17:08;;;;;;;;;;;;;;;24.74;58.51;100801.34;4959383;28;1393;-65
2021/08/05 08:19:35;;;;;;;;;;;;;;;24.75;59.10;100807.50;4955059;28;1543;-66
2021/08/05 08:22:02;;;;;;;;;;;;;;;24.82;59.04;100800.75;4955593;28;1906;-66
2021/08/05 08:24:29;;;;;;;;;;;;;;;24.85;59.30;100808.47;4969327;28;1355;-65
2021/08/05 08:26:55;;;;;;;;;;;;;;;24.84;59.28;100807.63;4969978;28;948;-67
2021/08/05 08:29:22;;;;;;;;;;;;;;;24.86;58.96;100807.53;4952265;28;1104;-66
2021/08/05 08:31:49;;;;;;;;;;;;;;;24.89;59.30;100812.59;4969801;28;1380;-73
2021/08/05 08:34:16;;;;;;;;;;;;;;;24.90;59.14;100814.28;4952971;28;1010;-71
2021/08/05 08:36:45;;;;;;;;;;;;;;;24.94;59.76;100805.06;4969762;28;1230;-72
2021/08/05 08:39:12;;;;;;;;;;;;;;;24.91;59.98;100806.16;4952520;28;1216;-72
2021/08/05 08:41:40;;;;;;;;;;;;;;;24.94;59.63;100813.06;4969486;28;1258;-70
2021/08/05 08:44:07;;;;;;;;;;;;;;;24.98;60.24;100803.84;4952485;28;1906;-71
2021/08/05 08:46:34;;;;;;;;;;;;;;;25.04;60.10;100808.69;4945686;28;1540;-72
2021/08/05 08:49:02;;;;;;;;;;;;;;;25.02;60.06;100818.59;4932198;29;1147;-69
2021/08/05 08:51:31;;;;;;;;;;;;;;;25.06;59.80;100812.03;4949956;28;1225;-70
2021/08/05 08:54:02;;;;;;;;;;;;;;;25.12;60.84;100819.53;4932722;29;823;-67
2021/08/05 08:56:33;;;;;;;;;;;;;;;25.06;60.64;100800.53;4950051;29;1317;-67
2021/08/05 08:59:00;;;;;;;;;;;;;;;25.04;60.51;100800.69;4932819;29;1448;-69
2021/08/05 09:01:29;;;;;;;;;;;;;;;25.08;60.90;100812.75;4932437;29;1237;-69
2021/08/05 09:03:56;;;;;;;;;;;;;;;25.18;59.79;100807.50;4950051;28;1971;-68
2021/08/05 09:06:23;;;;;;;;;;;;;;;25.15;59.27;100803.28;4949672;28;1245;-66
2021/08/05 09:08:50;;;;;;;;;;;;;;;25.08;60.43;100799.44;4948593;29;871;-68
2021/08/05 09:11:19;;;;;;;;;;;;;;;25.07;60.55;100805.75;4948627;28;1481;-67
2021/08/05 09:13:46;;;;;;;;;;;;;;;25.06;60.29;100809.38;4966790;28;1307;-68
2021/08/05 09:16:19;;;;;;;;;;;;;;;25.05;59.74;100801.53;4968193;28;1249;-67
2021/08/05 09:18:46;;;;;;;;;;;;;;;25.04;60.04;100803.34;4967881;28;1221;-66
2021/08/05 09:21:18;;;;;;;;;;;;;;;25.03;60.08;100804.31;4968157;28;1297;-67
2021/08/05 09:23:52;;;;;;;;;;;;;;;25.02;60.42;100803.47;4967943;28;1982;-67
2021/08/05 09:26:23;;;;;;;;;;;;;;;25.04;60.13;100807.81;4968557;28;1293;-68
2021/08/05 09:29:00;;;;;;;;;;;;;;;25.03;60.24;100804.31;4968348;28;768;-67
2021/08/05 09:31:26;;;;;;;;;;;;;;;25.04;59.81;100794.50;4951035;28;1647;-67
2021/08/05 09:34:04;;;;;;;;;;;;;;;25.04;59.40;100790.03;4968353;28;1180;-67
2021/08/05 09:36:31;;;;;;;;;;;;;;;25.05;59.70;100785.53;4968274;28;1325;-67
2021/08/05 09:38:58;;;;;;;;;;;;;;;25.05;59.73;100786.34;4968529;28;792;-66
2021/08/05 09:41:24;;;;;;;;;;;;;;;25.05;59.91;100788.22;4968339;28;1316;-66
2021/08/05 09:43:59;;;;;;;;;;;;;;;25.06;59.62;100787.22;4968929;28;1993;-64
2021/08/05 09:46:30;;;;;;;;;;;;;;;25.07;59.54;100791.59;4968543;28;1233;-68
2021/08/05 09:48:58;;;;;;;;;;;;;;;25.06;59.08;100790.72;4951207;28;995;-66
2021/08/05 09:51:25;;;;;;;;;;;;;;;25.06;59.27;100782.72;4968103;28;1307;-66
2021/08/05 09:54:02;;;;;;;;;;;;;;;25.06;59.63;100788.06;4968393;28;1036;-67
2021/08/05 09:56:31;;;;;;;;;;;;;;;25.07;59.32;100789.75;4968254;28;1308;-67
2021/08/05 09:59:04;;;;;;;;;;;;;;;25.07;59.81;100781.78;4967936;28;1038;-67
2021/08/05 10:01:31;;;;;;;;;;;;;;;25.08;59.50;100778.09;4968530;28;1338;-66
2021/08/05 10:03:58;;;;;;;;;;;;;;;25.06;59.48;100769.41;4968376;28;1910;-67
2021/08/05 10:06:26;;;;;;;;;;;;;;;25.10;59.57;100773.53;4967865;28;1238;-66
2021/08/05 10:08:54;;;;;;;;;;;;;;;25.08;59.67;100770.13;4968008;28;1131;-66
2021/08/05 10:11:34;;;;;;;;;;;;;;;25.10;59.62;100768.19;4968681;28;1409;-66
2021/08/05 10:14:18;;;;;;;;;;;;;;;25.10;59.68;100773.53;4968362;28;1107;-66
2021/08/05 10:16:51;;;;;;;;;;;;;;;25.13;59.25;100775.06;4968067;28;1222;-67
2021/08/05 10:19:18;;;;;;;;;;;;;;;25.10;59.91;100770.84;4969446;28;1032;-67
2021/08/05 10:21:46;;;;;;;;;;;;;;;25.12;59.64;100779.56;4953850;28;1202;-66
2021/08/05 10:24:14;;;;;;;;;;;;;;;25.10;59.43;100783.34;4971273;28;1910;-67
2021/08/05 10:26:42;;;;;;;;;;;;;;;25.12;59.73;100776.91;4971815;28;1178;-65
2021/08/05 10:29:11;;;;;;;;;;;;;;;25.13;59.54;100778.59;4971632;28;1088;-65
2021/08/05 10:31:40;;;;;;;;;;;;;;;25.14;60.11;100779.44;4954324;28;1316;-66
2021/08/05 10:34:09;;;;;;;;;;;;;;;25.14;59.67;100768.78;4971978;28;1087;-66
2021/08/05 10:36:36;;;;;;;;;;;;;;;25.14;59.26;100766.94;4971294;28;1212;-67
2021/08/05 10:39:03;;;;;;;;;;;;;;;25.14;59.99;100756.28;4954358;28;1060;-68
2021/08/05 10:41:31;;;;;;;;;;;;;;;25.15;60.17;100754.47;4971831;28;1170;-68
2021/08/05 10:44:01;;;;;;;;;;;;;;;25.17;60.00;100748.03;4971723;28;1914;-67
2021/08/05 10:46:33;;;;;;;;;;;;;;;25.17;59.96;100750.69;4971175;28;1230;-66
2021/08/05 10:49:04;;;;;;;;;;;;;;;25.17;58.56;100758.69;4971663;28;1050;-67
2021/08/05 10:51:35;;;;;;;;;;;;;;;25.18;60.42;100751.53;4971504;28;1276;-66
2021/08/05 10:54:02;;;;;;;;;;;;;;;25.19;60.41;100745.25;4971255;28;1145;-67
2021/08/05 10:56:30;;;;;;;;;;;;;;;25.19;60.53;100746.09;4971239;28;1270;-67
2021/08/05 10:59:03;;;;;;;;;;;;;;;25.19;58.95;100743.44;4971393;28;1041;-68
2021/08/05 11:01:48;;;;;;;;;;;;;;;25.20;59.96;100723.78;4971465;28;1280;-67
2021/08/05 11:04:41;;;;;;;;;;;;;;;25.21;60.11;100719.28;4970611;28;1927;-65
2021/08/05 11:07:20;;;;;;;;;;;;;;;25.22;60.63;100713.00;4968326;28;1317;-66
2021/08/05 11:09:47;;;;;;;;;;;;;;;25.21;60.20;100712.16;4969863;28;1280;-67
2021/08/05 11:12:33;;;;;;;;;;;;;;;25.22;59.95;100697.84;4971125;28;1331;-67
2021/08/05 11:14:59;;;;;;;;;;;;;;;25.23;59.95;100690.72;4971008;28;1299;-66
2021/08/05 11:17:26;;;;;;;;;;;;;;;25.22;59.87;100692.53;4953170;28;1719;-66
2021/08/05 11:20:16;;;;;;;;;;;;;;;25.24;59.71;100700.38;4970779;28;1230;-66
2021/08/05 11:22:45;;;;;;;;;;;;;;;25.25;59.97;100694.06;4965076;28;1911;-67
2021/08/05 11:25:13;;;;;;;;;;;;;;;25.25;59.23;100694.06;4952721;28;1805;-66
2021/08/05 11:27:45;;;;;;;;;;;;;;;25.25;60.18;100702.94;4970469;28;1128;-67
2021/08/05 11:30:32;;;;;;;;;;;;;;;25.26;59.76;100693.94;4952329;28;1352;-66
2021/08/05 11:32:58;;;;;;;;;;;;;;;25.27;60.52;100711.63;4970229;28;831;-68
2021/08/05 11:35:25;;;;;;;;;;;;;;;25.28;59.34;100697.34;4970657;28;1355;-67
2021/08/05 11:38:08;;;;;;;;;;;;;;;25.27;60.36;100705.44;4970226;28;938;-66
2021/08/05 11:40:42;;;;;;;;;;;;;;;25.29;59.66;100700.84;4969640;28;1363;-67
2021/08/05 11:43:19;;;;;;;;;;;;;;;25.29;59.12;100699.00;4952855;28;2003;-67
2021/08/05 11:46:04;;;;;;;;;;;;;;;25.29;58.27;100679.53;4952730;28;1265;-66
2021/08/05 11:48:36;;;;;;;;;;;;;;;25.30;59.60;100673.19;4969727;28;1085;-67
2021/08/05 11:51:02;;;;;;;;;;;;;;;25.32;60.58;100673.94;4966812;28;1503;-67
2021/08/05 11:53:29;;;;;;;;;;;;;;;25.45;62.26;100672.72;4954502;28;1113;-68
2021/08/05 11:55:56;;;;;;;;;;;;;;;25.43;60.57;100680.03;4989329;28;1253;-68
2021/08/05 11:58:22;;;;;;;;;;;;;;;25.41;59.99;100665.97;4987494;28;768;-69
2021/08/05 12:00:49;;;;;;;;;;;;;;;25.41;60.44;100660.63;4970347;28;1351;-69
2021/08/05 12:03:16;;;;;;;;;;;;;;;25.47;59.87;100660.09;4969709;28;1983;-69
2021/08/05 12:05:45;;;;;;;;;;;;;;;25.47;61.46;100668.09;4952020;28;1328;-69
2021/08/05 12:08:12;;;;;;;;;;;;;;;25.47;61.02;100665.44;4945402;29;1305;-67
2021/08/05 12:10:40;;;;;;;;;;;;;;;25.46;61.32;100669.09;4950571;28;1366;-70
2021/08/05 12:13:14;;;;;;;;;;;;;;;25.47;60.05;100667.28;4957141;28;1511;-66
2021/08/05 12:15:46;;;;;;;;;;;;;;;25.45;59.83;100648.72;4950781;29;1249;-68
2021/08/05 12:18:15;;;;;;;;;;;;;;;25.47;59.86;100649.44;4949918;29;764;-68
2021/08/05 12:20:44;;;;;;;;;;;;;;;25.47;59.67;100643.28;4949654;28;1262;-67
2021/08/05 12:23:28;;;;;;;;;;;;;;;25.47;59.91;100641.44;4931827;29;1979;-66
2021/08/05 12:26:05;;;;;;;;;;;;;;;25.49;59.89;100641.34;4961624;28;1320;-66
2021/08/05 12:28:36;;;;;;;;;;;;;;;25.53;60.18;100648.94;4968870;28;927;-72
2021/08/05 12:31:05;;;;;;;;;;;;;;;25.54;59.97;100645.28;4968711;28;1241;-67
2021/08/05 12:33:36;;;;;;;;;;;;;;;25.54;59.66;100647.97;4969209;28;811;-68
2021/08/05 12:36:05;;;;;;;;;;;;;;;25.53;59.15;100648.94;4987946;28;1336;-67
2021/08/05 12:38:41;;;;;;;;;;;;;;;25.50;59.42;100638.53;4988902;28;831;-67
2021/08/05 12:41:08;;;;;;;;;;;;;;;25.52;58.29;100638.41;4954878;28;1269;-68
2021/08/05 12:43:40;;;;;;;;;;;;;;;25.53;59.19;100638.25;4988386;28;1977;-68
2021/08/05 12:46:09;;;;;;;;;;;;;;;25.53;59.04;100638.25;4988425;28;1355;-66
2021/08/05 12:48:37;;;;;;;;;;;;;;;25.58;59.02;100639.69;4971340;28;767;-66
2021/08/05 12:51:04;;;;;;;;;;;;;;;25.54;58.79;100621.28;4988293;28;1354;-66
2021/08/05 12:53:35;;;;;;;;;;;;;;;25.52;58.34;100628.59;4988470;28;1128;-66
2021/08/05 12:56:03;;;;;;;;;;;;;;;25.54;58.78;100629.28;4970282;28;1330;-65